createdAt,value
2024-04-22T00:02:14.629Z,0
2024-04-22T00:07:09.620Z,0
2024-04-22T00:12:12.151Z,0
2024-04-22T00:17:10.049Z,0
2024-04-22T00:22:09.771Z,0
2024-04-22T00:27:01.225Z,0
2024-04-22T00:32:10.887Z,0
2024-04-22T00:37:02.589Z,0
2024-04-22T00:42:02.261Z,1
2024-04-22T00:47:11.298Z,0
2024-04-22T00:52:06.734Z,1.5
2024-04-22T00:57:13.633Z,0
2024-04-22T01:02:11.874Z,0
2024-04-22T01:07:05.072Z,0
2024-04-22T01:11:57.778Z,0
2024-04-22T01:17:08.991Z,0
2024-04-22T01:22:03.201Z,0
2024-04-22T01:27:06.144Z,0
2024-04-22T01:32:10.036Z,1.5
2024-04-22T01:42:08.373Z,0
2024-04-22T01:47:08.828Z,0
2024-04-22T01:52:07.855Z,0
2024-04-22T01:57:11.700Z,0
2024-04-22T02:02:15.320Z,0
2024-04-22T02:07:12.072Z,0
2024-04-22T02:17:21.295Z,0
2024-04-22T02:22:00.342Z,0
2024-04-22T02:27:09.191Z,0
2024-04-22T02:32:23.954Z,0
2024-04-22T02:37:05.630Z,0
2024-04-22T02:42:05.151Z,0
2024-04-22T02:47:18.229Z,0
2024-04-22T02:52:06.327Z,0
2024-04-22T02:57:02.220Z,0
2024-04-22T03:02:09.951Z,0
2024-04-22T03:12:06.386Z,1
2024-04-22T03:17:05.087Z,0
2024-04-22T03:22:00.856Z,0
2024-04-22T03:27:02.019Z,0
2024-04-22T03:32:08.613Z,0
2024-04-22T03:37:07.199Z,0
2024-04-22T03:42:02.336Z,1
2024-04-22T03:47:10.518Z,1.882
2024-04-22T03:52:16.991Z,3.667
2024-04-22T03:57:05.975Z,6
2024-04-22T04:02:12.443Z,8.267
2024-04-22T04:12:13.111Z,20.538
2024-04-22T04:17:06.641Z,31.385
2024-04-22T04:22:10.115Z,49.6
2024-04-22T04:27:09.788Z,72.154
2024-04-22T04:32:09.830Z,97.083
2024-04-22T04:37:13.590Z,85.538
2024-04-22T04:42:12.223Z,81.462
2024-04-22T04:47:11.878Z,84.923
2024-04-22T04:52:09.819Z,96.75
2024-04-22T04:57:15.238Z,106.75
2024-04-22T05:02:26.012Z,109.25
2024-04-22T05:07:09.515Z,141.091
2024-04-22T05:12:11.007Z,153.545
2024-04-22T05:17:12.822Z,166.8
2024-04-22T05:22:14.021Z,175.3
2024-04-22T05:27:14.848Z,187.2
2024-04-22T05:32:10.622Z,189.4
2024-04-22T05:37:13.092Z,195.8
2024-04-22T05:42:12.422Z,238.778
2024-04-22T05:47:15.268Z,281
2024-04-22T05:52:09.584Z,304.5
2024-04-22T05:57:12.832Z,443.75
2024-04-22T06:02:21.693Z,650.375
2024-04-22T06:07:02.376Z,654.625
2024-04-22T06:12:14.997Z,633
2024-04-22T06:17:20.466Z,1914.333
2024-04-22T06:22:14.090Z,1910.714
2024-04-22T06:27:09.859Z,2226.167
2024-04-22T06:32:22.449Z,2806.4
2024-04-22T06:37:15.396Z,2530.4
2024-04-22T06:42:13.424Z,2194
2024-04-22T06:47:16.994Z,1299.875
2024-04-22T06:52:07.062Z,2856.5
2024-04-22T06:57:16.318Z,2982.8
2024-04-22T07:02:41.975Z,3064
2024-04-22T07:07:15.744Z,3142.8
2024-04-22T07:12:11.278Z,3389
2024-04-22T07:17:21.726Z,1562.286
2024-04-22T07:27:20.067Z,1316.375
2024-04-22T07:32:19.865Z,3097
2024-04-22T07:37:08.497Z,3636.833
2024-04-22T07:42:05.526Z,5345.2
2024-04-22T07:47:16.197Z,2227.6
2024-04-22T07:52:17.368Z,2279.833
2024-04-22T07:57:11.585Z,1389.125
2024-04-22T08:02:19.751Z,1293.875
2024-04-22T08:07:02.276Z,881.125
2024-04-22T08:12:16.288Z,762.75
2024-04-22T08:17:10.527Z,952.875
2024-04-22T08:22:11.784Z,1368.625
2024-04-22T08:27:03.037Z,1791.571
2024-04-22T08:32:09.688Z,909.375
2024-04-22T08:37:14.800Z,869.75
2024-04-22T08:42:15.387Z,1131.375
2024-04-22T08:47:20.407Z,1238.625
2024-04-22T08:51:58.804Z,1486.5
2024-04-22T08:57:09.884Z,1377
2024-04-22T09:02:16.866Z,794.875
2024-04-22T09:07:14.401Z,535.875
2024-04-22T09:13:20.713Z,492
2024-04-22T09:17:16.470Z,790.25
2024-04-22T09:22:16.097Z,1244.5
2024-04-22T09:27:19.838Z,1442
2024-04-22T09:32:13.656Z,1508
2024-04-22T09:37:13.400Z,1296.5
2024-04-22T09:42:15.672Z,1379.75
2024-04-22T09:46:59.804Z,1089
2024-04-22T09:52:08.689Z,1161.125
2024-04-22T10:02:19.324Z,3021.167
2024-04-22T10:07:17.590Z,2681
2024-04-22T10:12:16.255Z,1870.571
2024-04-22T10:17:23.272Z,1197.625
2024-04-22T10:22:10.404Z,1380.375
2024-04-22T10:27:15.039Z,839.875
2024-04-22T10:32:15.417Z,1174.125
2024-04-22T10:37:11.203Z,1795.571
2024-04-22T10:42:15.193Z,1510.875
2024-04-22T10:47:20.740Z,1400.25
2024-04-22T10:52:17.863Z,1269
2024-04-22T10:57:13.519Z,1060.625
2024-04-22T11:02:12.154Z,1233.75
2024-04-22T11:07:11.542Z,1872.286
2024-04-22T11:12:11.402Z,1368.25
2024-04-22T11:17:16.901Z,1286.125
2024-04-22T11:22:08.009Z,1313.875
2024-04-22T11:27:05.789Z,1197
2024-04-22T11:32:12.763Z,1090.875
2024-04-22T11:37:07.620Z,1122.5
2024-04-22T11:42:08.276Z,1220
2024-04-22T11:47:11.768Z,1278.875
2024-04-22T11:52:08.332Z,1413
2024-04-22T11:57:03.211Z,1390.375
2024-04-22T12:02:17.628Z,1274.625
2024-04-22T12:07:12.963Z,1243.25
2024-04-22T12:12:10.520Z,1242.125
2024-04-22T12:17:13.321Z,1326.125
2024-04-22T12:22:14.315Z,1352.875
2024-04-22T12:27:14.002Z,1414
2024-04-22T12:32:15.173Z,1468.125
2024-04-22T12:42:11.152Z,1319.625
2024-04-22T12:47:16.099Z,1132.625
2024-04-22T12:52:13.283Z,1149
2024-04-22T12:57:14.634Z,1253.75
2024-04-22T13:02:22.452Z,1292.125
2024-04-22T13:07:14.889Z,1088.25
2024-04-22T13:12:08.660Z,1177.375
2024-04-22T13:17:05.619Z,1156.125
2024-04-22T13:22:13.417Z,932.25
2024-04-22T13:27:10.835Z,988.375
2024-04-22T13:32:08.081Z,1074.25
2024-04-22T13:37:04.963Z,1025.875
2024-04-22T13:42:09.391Z,987.125
2024-04-22T13:47:10.939Z,918.875
2024-04-22T13:52:17.041Z,872.375
2024-04-22T13:57:10.907Z,759.125
2024-04-22T14:02:11.077Z,575.5
2024-04-22T14:07:14.731Z,390.375
2024-04-22T14:12:12.025Z,348.875
2024-04-22T14:17:08.984Z,346.25
2024-04-22T14:22:10.669Z,345.5
2024-04-22T14:27:10.002Z,369.75
2024-04-22T14:32:14.186Z,446.375
2024-04-22T14:37:16.159Z,523.375
2024-04-22T14:42:04.588Z,512.875
2024-04-22T14:47:11.087Z,668.125
2024-04-22T14:52:11.529Z,676.875
2024-04-22T14:57:04.450Z,646.25
2024-04-22T15:02:13.776Z,468.5
2024-04-22T15:12:18.057Z,340.25
2024-04-22T15:17:12.989Z,290.375
2024-04-22T15:22:11.711Z,391.125
2024-04-22T15:27:12.214Z,441.5
2024-04-22T15:32:20.482Z,499.75
2024-04-22T15:37:11.718Z,500.625
2024-04-22T15:42:08.748Z,500.25
2024-04-22T15:47:15.322Z,423.5
2024-04-22T15:52:09.412Z,379.625
2024-04-22T15:57:12.488Z,335.25
2024-04-22T16:02:16.645Z,251.75
2024-04-22T16:07:10.115Z,250.25
2024-04-22T16:12:15.987Z,182.091
2024-04-22T16:17:10.360Z,156.75
2024-04-22T16:22:25.530Z,125.615
2024-04-22T16:27:10.775Z,117.538
2024-04-22T16:32:10.144Z,113.923
2024-04-22T16:37:14.088Z,132.364
2024-04-22T16:42:13.176Z,123.083
2024-04-22T16:47:21.956Z,150.364
2024-04-22T16:52:13.695Z,122.167
2024-04-22T16:57:12.752Z,100
2024-04-22T17:02:14.651Z,83
2024-04-22T17:07:10.493Z,80.692
2024-04-22T17:12:12.136Z,76.154
2024-04-22T17:17:13.136Z,60.333
2024-04-22T17:22:08.958Z,53.4
2024-04-22T17:27:15.972Z,45.333
2024-04-22T17:32:20.186Z,36.133
2024-04-22T17:37:13.491Z,28.867
2024-04-22T17:42:12.252Z,21.923
2024-04-22T17:47:17.529Z,14.733
2024-04-22T17:52:11.395Z,9.067
2024-04-22T17:57:17.888Z,5.267
2024-04-22T18:07:11.323Z,1
2024-04-22T18:12:16.262Z,0
2024-04-22T18:17:13.193Z,0
2024-04-22T18:22:13.883Z,0
2024-04-22T18:27:20.801Z,0
2024-04-22T18:32:10.687Z,2.5
2024-04-22T18:37:08.751Z,0
2024-04-22T18:42:08.258Z,0
2024-04-22T18:47:10.983Z,0
2024-04-22T18:52:03.610Z,0
2024-04-22T19:02:10.175Z,0
2024-04-22T19:07:05.802Z,0
2024-04-22T19:12:09.656Z,2.5
2024-04-22T19:22:05.019Z,0
2024-04-22T19:27:07.336Z,0
2024-04-22T19:32:08.390Z,0
2024-04-22T19:37:14.460Z,1
2024-04-22T19:47:12.333Z,1.5
2024-04-22T19:52:11.631Z,2
2024-04-22T19:56:57.789Z,0
2024-04-22T20:02:15.596Z,0
2024-04-22T20:07:10.418Z,0
2024-04-22T20:12:09.522Z,0
2024-04-22T20:17:09.455Z,0
2024-04-22T20:22:12.801Z,0
2024-04-22T20:27:14.348Z,0
2024-04-22T20:32:04.169Z,0
2024-04-22T20:37:05.858Z,1
2024-04-22T20:42:10.077Z,0
2024-04-22T20:47:07.814Z,0
2024-04-22T20:52:12.635Z,1.5
2024-04-22T20:57:14.120Z,1
2024-04-22T21:02:07.540Z,0
2024-04-22T21:07:06.739Z,1.5
2024-04-22T21:12:11.706Z,0
2024-04-22T21:17:12.312Z,0
2024-04-22T21:22:06.452Z,0
2024-04-22T21:26:59.987Z,0
2024-04-22T21:32:09.294Z,0
2024-04-22T21:37:08.704Z,0
2024-04-22T21:42:02.832Z,0
2024-04-22T21:47:09.689Z,0
2024-04-22T21:52:12.174Z,0
2024-04-22T21:57:08.541Z,0
2024-04-22T22:02:29.235Z,0
2024-04-22T22:07:09.434Z,2.5
2024-04-22T22:12:07.582Z,0
2024-04-22T22:17:51.218Z,0
2024-04-22T22:27:10.046Z,1.5
2024-04-22T22:32:14.015Z,0
2024-04-22T22:37:09.397Z,1.5
2024-04-22T22:42:07.981Z,0
2024-04-22T22:47:12.816Z,0
2024-04-22T22:52:04.826Z,3
2024-04-22T22:57:01.792Z,0
2024-04-22T23:02:07.714Z,0
2024-04-22T23:07:04.939Z,1
2024-04-22T23:12:09.084Z,0
2024-04-22T23:17:06.935Z,0
2024-04-22T23:22:10.292Z,0
2024-04-22T23:27:09.637Z,0
2024-04-22T23:32:10.083Z,0
2024-04-22T23:37:09.099Z,0
2024-04-22T23:42:06.870Z,0
2024-04-22T23:47:11.724Z,0
2024-04-22T23:52:05.498Z,2.5
2024-04-22T23:57:12.165Z,0
